PWSweather.com
Personal Weather Stations
Station Observations
01979
Ravne Pri CerknemSI 5282

Ravne Pri CerknemSI 5282

Lat: 46.1213916, Lon: 13.952774299999987

Elevation: 2244.094488

Station Type: Techo Line WS2307

www.vremenska.postaja.andre.si/

High Low Average
Temperature 74.8°F23.8°C 55.8°F13.2°C 62.6°F17.0°C
Dew Point 61.4°F16.3°C 53.0°F11.7°C 57.1°F13.9°C
Winds 10.5 mph 16.9 kmh Calm Calm 1.0 mph NE1.6 kmh NE
Wind Gusts 33.6 mph54.1 kmh -- 2.0 mph3.2 kmh
Humidity 94% 61% 83%
Pressure 30.24 in1024.0 mb 30.11 in1019.6 mb -
Precipitation 0.82 in20.8 mm - -
Hour Temp Dew Point Humidity Winds Wind Gusts Pressure Precip Precip Rate Daily Precip Total
12:00 AM 59.4°F15.2°C 55.2°F12.9°C 86% 0.5 mph ENE0.8 kmh ENE 3.1 mph5.0 kmh 30.16 in1021.3 mb 0.00 in0.0 mm 0.00 in0.0 mm 0.00 in0.0 mm
12:10 AM 58.8°F14.9°C 55.3°F12.9°C 88% Calm Calm -- 30.16 in1021.3 mb 0.00 in0.0 mm 0.00 in0.0 mm 0.00 in0.0 mm
12:20 AM 59.5°F15.3°C 55.7°F13.2°C 87% 0.1 mph E0.2 kmh E 1.8 mph2.9 kmh 30.17 in1021.7 mb 0.00 in0.0 mm 0.00 in0.0 mm 0.00 in0.0 mm
12:30 AM 60.1°F15.6°C 55.6°F13.1°C 85% 3.0 mph E4.8 kmh E 5.1 mph8.2 kmh 30.16 in1021.3 mb 0.00 in0.0 mm 0.00 in0.0 mm 0.00 in0.0 mm
12:40 AM 60.4°F15.8°C 55.6°F13.1°C 84% 1.5 mph E2.4 kmh E 4.9 mph7.9 kmh 30.16 in1021.3 mb 0.00 in0.0 mm 0.00 in0.0 mm 0.00 in0.0 mm
12:50 AM 59.9°F15.5°C 55.4°F13.0°C 85% Calm Calm -- 30.16 in1021.3 mb 0.00 in0.0 mm 0.00 in0.0 mm 0.00 in0.0 mm
01:00 AM 58.8°F14.9°C 55.0°F12.8°C 87% Calm Calm -- 30.16 in1021.3 mb 0.00 in0.0 mm 0.00 in0.0 mm 0.00 in0.0 mm
01:10 AM 58.8°F14.9°C 55.0°F12.8°C 87% 1.3 mph S2.1 kmh S 5.1 mph8.2 kmh 30.16 in1021.3 mb 0.00 in0.0 mm 0.00 in0.0 mm 0.00 in0.0 mm
01:20 AM 59.5°F15.3°C 55.3°F12.9°C 86% 0.1 mph SSW0.2 kmh SSW 1.3 mph2.1 kmh 30.16 in1021.3 mb 0.00 in0.0 mm 0.00 in0.0 mm 0.00 in0.0 mm
01:30 AM 58.8°F14.9°C 54.6°F12.6°C 86% Calm Calm -- 30.16 in1021.3 mb 0.00 in0.0 mm 0.00 in0.0 mm 0.00 in0.0 mm
01:40 AM 58.8°F14.9°C 55.0°F12.8°C 87% Calm Calm -- 30.16 in1021.3 mb 0.00 in0.0 mm 0.00 in0.0 mm 0.00 in0.0 mm
01:50 AM 58.8°F14.9°C 55.3°F12.9°C 88% Calm Calm -- 30.16 in1021.3 mb 0.00 in0.0 mm 0.00 in0.0 mm 0.00 in0.0 mm
02:00 AM 58.8°F14.9°C 55.0°F12.8°C 87% Calm Calm -- 30.16 in1021.3 mb 0.00 in0.0 mm 0.00 in0.0 mm 0.00 in0.0 mm
02:03 AM 58.8°F14.9°C 55.0°F12.8°C 87% Calm Calm -- 30.16 in1021.3 mb 0.00 in0.0 mm 0.00 in0.0 mm 0.00 in0.0 mm
02:10 AM 58.3°F14.6°C 54.4°F12.4°C 87% Calm Calm -- 30.15 in1021.0 mb 0.00 in0.0 mm 0.00 in0.0 mm 0.00 in0.0 mm
02:20 AM 57.4°F14.1°C 53.9°F12.2°C 88% Calm Calm -- 30.15 in1021.0 mb 0.00 in0.0 mm 0.00 in0.0 mm 0.00 in0.0 mm
02:30 AM 57.0°F13.9°C 53.5°F11.9°C 88% Calm Calm -- 30.14 in1020.7 mb 0.00 in0.0 mm 0.00 in0.0 mm 0.00 in0.0 mm
02:40 AM 56.7°F13.7°C 53.5°F11.9°C 89% Calm Calm -- 30.14 in1020.7 mb 0.00 in0.0 mm 0.00 in0.0 mm 0.00 in0.0 mm
02:50 AM 56.8°F13.8°C 53.9°F12.2°C 90% Calm Calm -- 30.15 in1021.0 mb 0.00 in0.0 mm 0.00 in0.0 mm 0.00 in0.0 mm
03:00 AM 56.5°F13.6°C 53.6°F12.0°C 90% Calm Calm -- 30.14 in1020.7 mb 0.00 in0.0 mm 0.00 in0.0 mm 0.00 in0.0 mm
03:02 AM 56.8°F13.8°C 53.6°F12.0°C 89% Calm Calm -- 30.14 in1020.7 mb 0.00 in0.0 mm 0.00 in0.0 mm 0.00 in0.0 mm
03:10 AM 57.0°F13.9°C 54.1°F12.3°C 90% Calm Calm -- 30.15 in1021.0 mb 0.00 in0.0 mm 0.00 in0.0 mm 0.00 in0.0 mm
03:20 AM 56.5°F13.6°C 53.6°F12.0°C 90% Calm Calm -- 30.14 in1020.7 mb 0.00 in0.0 mm 0.00 in0.0 mm 0.00 in0.0 mm
03:30 AM 56.7°F13.7°C 54.1°F12.3°C 91% Calm Calm -- 30.14 in1020.7 mb 0.00 in0.0 mm 0.00 in0.0 mm 0.00 in0.0 mm
03:40 AM 56.5°F13.6°C 53.9°F12.2°C 91% Calm Calm -- 30.14 in1020.7 mb 0.00 in0.0 mm 0.00 in0.0 mm 0.00 in0.0 mm
03:50 AM 56.1°F13.4°C 53.5°F11.9°C 91% Calm Calm -- 30.14 in1020.7 mb 0.00 in0.0 mm 0.00 in0.0 mm 0.00 in0.0 mm
04:00 AM 55.9°F13.3°C 53.4°F11.9°C 91% Calm Calm -- 30.14 in1020.7 mb 0.00 in0.0 mm 0.00 in0.0 mm 0.00 in0.0 mm
04:10 AM 55.9°F13.3°C 53.4°F11.9°C 91% Calm Calm -- 30.13 in1020.3 mb 0.00 in0.0 mm 0.00 in0.0 mm 0.00 in0.0 mm
04:20 AM 55.9°F13.3°C 53.4°F11.9°C 91% Calm Calm -- 30.13 in1020.3 mb 0.00 in0.0 mm 0.00 in0.0 mm 0.00 in0.0 mm
04:30 AM 56.1°F13.4°C 53.5°F11.9°C 91% Calm Calm -- 30.13 in1020.3 mb 0.00 in0.0 mm 0.00 in0.0 mm 0.00 in0.0 mm
04:40 AM 55.9°F13.3°C 53.4°F11.9°C 91% Calm Calm -- 30.14 in1020.7 mb 0.00 in0.0 mm 0.00 in0.0 mm 0.00 in0.0 mm
04:50 AM 55.9°F13.3°C 53.4°F11.9°C 91% Calm Calm -- 30.14 in1020.7 mb 0.00 in0.0 mm 0.00 in0.0 mm 0.00 in0.0 mm
05:00 AM 57.0°F13.9°C 54.1°F12.3°C 90% Calm Calm -- 30.14 in1020.7 mb 0.00 in0.0 mm 0.00 in0.0 mm 0.00 in0.0 mm
05:10 AM 57.4°F14.1°C 54.5°F12.5°C 90% Calm Calm -- 30.14 in1020.7 mb 0.00 in0.0 mm 0.00 in0.0 mm 0.00 in0.0 mm
05:20 AM 57.6°F14.2°C 54.3°F12.4°C 89% Calm Calm -- 30.14 in1020.7 mb 0.00 in0.0 mm 0.00 in0.0 mm 0.00 in0.0 mm
05:30 AM 56.8°F13.8°C 53.9°F12.2°C 90% Calm Calm -- 30.14 in1020.7 mb 0.00 in0.0 mm 0.00 in0.0 mm 0.00 in0.0 mm
05:40 AM 57.9°F14.4°C 54.7°F12.6°C 89% Calm Calm -- 30.14 in1020.7 mb 0.00 in0.0 mm 0.00 in0.0 mm 0.00 in0.0 mm
05:50 AM 58.6°F14.8°C 55.4°F13.0°C 89% Calm Calm -- 30.13 in1020.3 mb 0.00 in0.0 mm 0.00 in0.0 mm 0.00 in0.0 mm
06:00 AM 59.5°F15.3°C 56.0°F13.3°C 88% Calm Calm -- 30.13 in1020.3 mb 0.00 in0.0 mm 0.00 in0.0 mm 0.00 in0.0 mm
06:10 AM 59.7°F15.4°C 56.2°F13.4°C 88% Calm Calm -- 30.13 in1020.3 mb 0.00 in0.0 mm 0.00 in0.0 mm 0.00 in0.0 mm
06:20 AM 60.4°F15.8°C 56.2°F13.4°C 86% Calm Calm -- 30.13 in1020.3 mb 0.00 in0.0 mm 0.00 in0.0 mm 0.00 in0.0 mm
06:30 AM 61.2°F16.2°C 56.3°F13.5°C 84% Calm Calm -- 30.13 in1020.3 mb 0.00 in0.0 mm 0.00 in0.0 mm 0.00 in0.0 mm
06:40 AM 61.5°F16.4°C 56.6°F13.7°C 84% Calm Calm -- 30.13 in1020.3 mb 0.00 in0.0 mm 0.00 in0.0 mm 0.00 in0.0 mm
06:50 AM 61.5°F16.4°C 56.3°F13.5°C 83% Calm Calm -- 30.13 in1020.3 mb 0.00 in0.0 mm 0.00 in0.0 mm 0.00 in0.0 mm
07:00 AM 62.4°F16.9°C 56.9°F13.8°C 82% Calm Calm -- 30.14 in1020.7 mb 0.00 in0.0 mm 0.00 in0.0 mm 0.00 in0.0 mm
07:10 AM 63.0°F17.2°C 57.0°F13.9°C 81% Calm Calm -- 30.14 in1020.7 mb 0.00 in0.0 mm 0.00 in0.0 mm 0.00 in0.0 mm
07:20 AM 63.7°F17.6°C 57.4°F14.1°C 80% 0.3 mph ESE0.5 kmh ESE 3.4 mph5.5 kmh 30.14 in1020.7 mb 0.00 in0.0 mm 0.00 in0.0 mm 0.00 in0.0 mm
07:30 AM 63.5°F17.5°C 57.2°F14.0°C 80% 1.0 mph SE1.6 kmh SE 4.5 mph7.2 kmh 30.14 in1020.7 mb 0.00 in0.0 mm 0.00 in0.0 mm 0.00 in0.0 mm
07:40 AM 63.7°F17.6°C 58.8°F14.9°C 84% 2.4 mph ESE3.9 kmh ESE 4.5 mph7.2 kmh 30.14 in1020.7 mb 0.00 in0.0 mm 0.00 in0.0 mm 0.00 in0.0 mm
07:50 AM 63.9°F17.7°C 57.9°F14.4°C 81% Calm Calm -- 30.14 in1020.7 mb 0.00 in0.0 mm 0.00 in0.0 mm 0.00 in0.0 mm
08:00 AM 65.5°F18.6°C 58.8°F14.9°C 79% 0.2 mph ENE0.3 kmh ENE 1.1 mph1.8 kmh 30.14 in1020.7 mb 0.00 in0.0 mm 0.00 in0.0 mm 0.00 in0.0 mm
08:10 AM 65.1°F18.4°C 58.8°F14.9°C 80% Calm Calm -- 30.14 in1020.7 mb 0.00 in0.0 mm 0.00 in0.0 mm 0.00 in0.0 mm
08:20 AM 65.3°F18.5°C 59.0°F15.0°C 80% Calm Calm -- 30.14 in1020.7 mb 0.00 in0.0 mm 0.00 in0.0 mm 0.00 in0.0 mm
08:30 AM 66.2°F19.0°C 59.8°F15.4°C 80% 0.1 mph E0.2 kmh E 3.6 mph5.8 kmh 30.15 in1021.0 mb 0.00 in0.0 mm 0.00 in0.0 mm 0.00 in0.0 mm
08:40 AM 67.3°F19.6°C 60.5°F15.8°C 79% 0.7 mph E1.1 kmh E 3.6 mph5.8 kmh 30.14 in1020.7 mb 0.00 in0.0 mm 0.00 in0.0 mm 0.00 in0.0 mm
08:50 AM 67.1°F19.5°C 60.4°F15.8°C 79% 0.2 mph SSW0.3 kmh SSW 1.3 mph2.1 kmh 30.14 in1020.7 mb 0.00 in0.0 mm 0.00 in0.0 mm 0.00 in0.0 mm
09:00 AM 68.4°F20.2°C 61.2°F16.2°C 78% Calm Calm -- 30.14 in1020.7 mb 0.00 in0.0 mm 0.00 in0.0 mm 0.00 in0.0 mm
09:10 AM 67.8°F19.9°C 60.3°F15.7°C 77% Calm Calm -- 30.14 in1020.7 mb 0.00 in0.0 mm 0.00 in0.0 mm 0.00 in0.0 mm
09:20 AM 68.2°F20.1°C 59.6°F15.3°C 74% 0.6 mph S1.0 kmh S 1.8 mph2.9 kmh 30.14 in1020.7 mb 0.00 in0.0 mm 0.00 in0.0 mm 0.00 in0.0 mm
09:30 AM 68.9°F20.5°C 59.9°F15.5°C 73% 1.3 mph E2.1 kmh E 6.7 mph10.8 kmh 30.14 in1020.7 mb 0.00 in0.0 mm 0.00 in0.0 mm 0.00 in0.0 mm
09:40 AM 70.3°F21.3°C 60.5°F15.8°C 71% 1.2 mph SSE1.9 kmh SSE 6.7 mph10.8 kmh 30.14 in1020.7 mb 0.00 in0.0 mm 0.00 in0.0 mm 0.00 in0.0 mm
09:50 AM 70.7°F21.5°C 59.6°F15.3°C 68% Calm Calm -- 30.14 in1020.7 mb 0.00 in0.0 mm 0.00 in0.0 mm 0.00 in0.0 mm
10:00 AM 70.9°F21.6°C 61.4°F16.3°C 72% 1.5 mph S2.4 kmh S 6.9 mph11.1 kmh 30.14 in1020.7 mb 0.00 in0.0 mm 0.00 in0.0 mm 0.00 in0.0 mm
10:10 AM 70.9°F21.6°C 60.2°F15.7°C 69% 0.6 mph SE1.0 kmh SE 2.7 mph4.3 kmh 30.14 in1020.7 mb 0.00 in0.0 mm 0.00 in0.0 mm 0.00 in0.0 mm
10:20 AM 71.8°F22.1°C 60.6°F15.9°C 68% 0.1 mph SSE0.2 kmh SSE 0.4 mph0.6 kmh 30.13 in1020.3 mb 0.00 in0.0 mm 0.00 in0.0 mm 0.00 in0.0 mm
10:30 AM 71.8°F22.1°C 60.2°F15.7°C 67% Calm Calm -- 30.14 in1020.7 mb 0.00 in0.0 mm 0.00 in0.0 mm 0.00 in0.0 mm
10:41 AM 72.7°F22.6°C 60.2°F15.7°C 65% Calm Calm -- 30.13 in1020.3 mb 0.00 in0.0 mm 0.00 in0.0 mm 0.00 in0.0 mm
10:50 AM 72.1°F22.3°C 60.2°F15.7°C 66% 5.4 mph S8.7 kmh S 6.5 mph10.5 kmh 30.13 in1020.3 mb 0.00 in0.0 mm 0.00 in0.0 mm 0.00 in0.0 mm
11:00 AM 70.3°F21.3°C 57.6°F14.2°C 64% 1.5 mph E2.4 kmh E 6.5 mph10.5 kmh 30.13 in1020.3 mb 0.00 in0.0 mm 0.00 in0.0 mm 0.00 in0.0 mm
11:10 AM 69.6°F20.9°C 57.8°F14.3°C 66% 0.3 mph E0.5 kmh E 1.6 mph2.6 kmh 30.13 in1020.3 mb 0.00 in0.0 mm 0.00 in0.0 mm 0.00 in0.0 mm
11:20 AM 69.4°F20.8°C 57.6°F14.2°C 66% Calm Calm -- 30.13 in1020.3 mb 0.00 in0.0 mm 0.00 in0.0 mm 0.00 in0.0 mm
11:30 AM 70.3°F21.3°C 58.4°F14.7°C 66% 1.0 mph E1.6 kmh E 3.8 mph6.1 kmh 30.13 in1020.3 mb 0.00 in0.0 mm 0.00 in0.0 mm 0.00 in0.0 mm
11:40 AM 71.8°F22.1°C 58.9°F14.9°C 64% 1.6 mph E2.6 kmh E 4.9 mph7.9 kmh 30.13 in1020.3 mb 0.00 in0.0 mm 0.00 in0.0 mm 0.00 in0.0 mm
11:50 AM 72.5°F22.5°C 60.5°F15.8°C 66% Calm Calm -- 30.13 in1020.3 mb 0.00 in0.0 mm 0.00 in0.0 mm 0.00 in0.0 mm
12:00 PM 70.5°F21.4°C 58.2°F14.6°C 65% 0.3 mph SSW0.5 kmh SSW 1.6 mph2.6 kmh 30.13 in1020.3 mb 0.00 in0.0 mm 0.00 in0.0 mm 0.00 in0.0 mm
12:10 PM 71.4°F21.9°C 59.9°F15.5°C 67% Calm Calm -- 30.12 in1020.0 mb 0.00 in0.0 mm 0.00 in0.0 mm 0.00 in0.0 mm
12:20 PM 71.4°F21.9°C 59.5°F15.3°C 66% 0.8 mph E1.3 kmh E 2.5 mph4.0 kmh 30.13 in1020.3 mb 0.00 in0.0 mm 0.00 in0.0 mm 0.00 in0.0 mm
12:30 PM 72.3°F22.4°C 59.0°F15.0°C 63% 1.2 mph E1.9 kmh E 5.4 mph8.7 kmh 30.13 in1020.3 mb 0.00 in0.0 mm 0.00 in0.0 mm 0.00 in0.0 mm
12:40 PM 70.3°F21.3°C 58.0°F14.4°C 65% 0.9 mph ESE1.4 kmh ESE 5.4 mph8.7 kmh 30.13 in1020.3 mb 0.00 in0.0 mm 0.00 in0.0 mm 0.00 in0.0 mm
12:50 PM 70.2°F21.2°C 57.8°F14.3°C 65% 0.2 mph E0.3 kmh E 1.1 mph1.8 kmh 30.12 in1020.0 mb 0.00 in0.0 mm 0.00 in0.0 mm 0.00 in0.0 mm
01:00 PM 68.7°F20.4°C 59.3°F15.2°C 72% Calm Calm -- 30.12 in1020.0 mb 0.00 in0.0 mm 0.00 in0.0 mm 0.00 in0.0 mm
01:10 PM 68.7°F20.4°C 60.5°F15.8°C 75% Calm Calm -- 30.11 in1019.6 mb 0.00 in0.0 mm 0.00 in0.0 mm 0.00 in0.0 mm
01:20 PM 69.6°F20.9°C 60.2°F15.7°C 72% Calm Calm -- 30.11 in1019.6 mb 0.00 in0.0 mm 0.00 in0.0 mm 0.00 in0.0 mm
01:30 PM 70.0°F21.1°C 59.7°F15.4°C 70% 1.4 mph E2.3 kmh E 3.4 mph5.5 kmh 30.11 in1019.6 mb 0.00 in0.0 mm 0.00 in0.0 mm 0.00 in0.0 mm
01:40 PM 70.9°F21.6°C 59.8°F15.4°C 68% Calm Calm -- 30.11 in1019.6 mb 0.00 in0.0 mm 0.00 in0.0 mm 0.00 in0.0 mm
01:50 PM 72.5°F22.5°C 61.3°F16.3°C 68% 0.5 mph E0.8 kmh E 2.2 mph3.5 kmh 30.12 in1020.0 mb 0.00 in0.0 mm 0.00 in0.0 mm 0.00 in0.0 mm
02:00 PM 73.8°F23.2°C 60.4°F15.8°C 63% 0.9 mph S1.4 kmh S 3.1 mph5.0 kmh 30.12 in1020.0 mb 0.00 in0.0 mm 0.00 in0.0 mm 0.00 in0.0 mm
02:10 PM 74.8°F23.8°C 61.4°F16.3°C 63% Calm Calm -- 30.11 in1019.6 mb 0.00 in0.0 mm 0.00 in0.0 mm 0.00 in0.0 mm
02:20 PM 74.8°F23.8°C 60.5°F15.8°C 61% Calm Calm -- 30.11 in1019.6 mb 0.00 in0.0 mm 0.00 in0.0 mm 0.00 in0.0 mm
02:30 PM 73.6°F23.1°C 59.8°F15.4°C 62% 1.6 mph SSE2.6 kmh SSE 8.7 mph14.0 kmh 30.11 in1019.6 mb 0.00 in0.0 mm 0.00 in0.0 mm 0.00 in0.0 mm
02:40 PM 71.2°F21.8°C 59.3°F15.2°C 66% 2.7 mph SSE4.3 kmh SSE 8.7 mph14.0 kmh 30.11 in1019.6 mb 0.00 in0.0 mm 0.00 in0.0 mm 0.00 in0.0 mm
02:50 PM 70.2°F21.2°C 58.7°F14.8°C 67% 0.9 mph S1.4 kmh S 3.6 mph5.8 kmh 30.11 in1019.6 mb 0.00 in0.0 mm 0.00 in0.0 mm 0.00 in0.0 mm
03:00 PM 69.6°F20.9°C 58.6°F14.8°C 68% 0.1 mph SW0.2 kmh SW 1.1 mph1.8 kmh 30.12 in1020.0 mb 0.00 in0.0 mm 0.00 in0.0 mm 0.00 in0.0 mm
03:10 PM 69.1°F20.6°C 58.9°F14.9°C 70% 2.5 mph NE4.0 kmh NE 6.0 mph9.7 kmh 30.11 in1019.6 mb 0.00 in0.0 mm 0.00 in0.0 mm 0.00 in0.0 mm
03:20 PM 68.5°F20.3°C 59.2°F15.1°C 72% 0.7 mph ENE1.1 kmh ENE 6.0 mph9.7 kmh 30.12 in1020.0 mb 0.00 in0.0 mm 0.00 in0.0 mm 0.00 in0.0 mm
03:30 PM 66.9°F19.4°C 59.1°F15.1°C 76% Calm Calm -- 30.13 in1020.3 mb 0.04 in1.0 mm 0.24 in6.1 mm 0.04 in1.0 mm
03:40 PM 66.0°F18.9°C 60.0°F15.6°C 81% Calm Calm -- 30.13 in1020.3 mb 0.08 in2.0 mm 0.24 in6.1 mm 0.08 in2.0 mm
03:50 PM 65.1°F18.4°C 58.4°F14.7°C 79% 0.9 mph ENE1.4 kmh ENE 2.9 mph4.7 kmh 30.14 in1020.7 mb 0.19 in4.8 mm 0.66 in16.8 mm 0.18 in4.6 mm
04:00 PM 60.4°F15.8°C 54.6°F12.6°C 81% 10.5 mph NE16.9 kmh NE 33.6 mph54.1 kmh 30.15 in1021.0 mb 0.43 in10.9 mm 0.29 in7.4 mm 0.43 in10.9 mm
04:10 PM 58.8°F14.9°C 53.0°F11.7°C 81% 9.5 mph E15.3 kmh E 22.4 mph36.0 kmh 30.16 in1021.3 mb 0.67 in17.0 mm 1.44 in36.6 mm 0.67 in17.0 mm
04:20 PM 57.4°F14.1°C 53.2°F11.8°C 86% 0.5 mph NE0.8 kmh NE 2.2 mph3.5 kmh 30.15 in1021.0 mb 0.76 in19.3 mm 0.54 in13.7 mm 0.75 in19.1 mm
04:30 PM 55.8°F13.2°C 53.2°F11.8°C 91% 3.3 mph N5.3 kmh N 10.7 mph17.2 kmh 30.15 in1021.0 mb 0.78 in19.8 mm 0.12 in3.0 mm 0.82 in20.8 mm
04:40 PM 57.4°F14.1°C 55.1°F12.8°C 92% 0.9 mph E1.4 kmh E 3.1 mph5.0 kmh 30.14 in1020.7 mb 0.71 in18.0 mm 0.00 in0.0 mm 0.82 in20.8 mm
04:50 PM 59.4°F15.2°C 56.7°F13.7°C 91% 0.3 mph ESE0.5 kmh ESE 2.0 mph3.2 kmh 30.14 in1020.7 mb 0.63 in16.0 mm 0.00 in0.0 mm 0.82 in20.8 mm
05:00 PM 60.1°F15.6°C 57.1°F13.9°C 90% 0.2 mph ESE0.3 kmh ESE 2.0 mph3.2 kmh 30.15 in1021.0 mb 0.39 in9.9 mm 0.00 in0.0 mm 0.82 in20.8 mm
05:10 PM 58.8°F14.9°C 56.8°F13.8°C 93% Calm Calm -- 30.16 in1021.3 mb 0.14 in3.6 mm 0.00 in0.0 mm 0.82 in20.8 mm
05:20 PM 59.4°F15.2°C 57.3°F14.1°C 93% 0.4 mph NNW0.6 kmh NNW 3.1 mph5.0 kmh 30.15 in1021.0 mb 0.02 in0.5 mm 0.00 in0.0 mm 0.82 in20.8 mm
05:30 PM 59.4°F15.2°C 57.6°F14.2°C 94% 0.8 mph NNW1.3 kmh NNW 3.1 mph5.0 kmh 30.16 in1021.3 mb 0.00 in0.0 mm 0.00 in0.0 mm 0.82 in20.8 mm
05:40 PM 59.5°F15.3°C 57.5°F14.2°C 93% 0.9 mph SSE1.4 kmh SSE 4.0 mph6.4 kmh 30.16 in1021.3 mb 0.00 in0.0 mm 0.00 in0.0 mm 0.82 in20.8 mm
05:50 PM 60.4°F15.8°C 58.1°F14.5°C 92% Calm Calm -- 30.16 in1021.3 mb 0.00 in0.0 mm 0.00 in0.0 mm 0.82 in20.8 mm
06:00 PM 63.1°F17.3°C 59.5°F15.3°C 88% 1.1 mph E1.8 kmh E 4.0 mph6.4 kmh 30.16 in1021.3 mb 0.00 in0.0 mm 0.00 in0.0 mm 0.82 in20.8 mm
06:10 PM 62.6°F17.0°C 59.0°F15.0°C 88% 1.5 mph E2.4 kmh E 3.4 mph5.5 kmh 30.16 in1021.3 mb 0.00 in0.0 mm 0.00 in0.0 mm 0.82 in20.8 mm
06:20 PM 63.1°F17.3°C 58.9°F14.9°C 86% 0.2 mph ESE0.3 kmh ESE 1.1 mph1.8 kmh 30.16 in1021.3 mb 0.00 in0.0 mm 0.00 in0.0 mm 0.82 in20.8 mm
06:30 PM 61.9°F16.6°C 58.6°F14.8°C 89% 0.1 mph ESE0.2 kmh ESE 1.1 mph1.8 kmh 30.16 in1021.3 mb 0.00 in0.0 mm 0.00 in0.0 mm 0.82 in20.8 mm
06:40 PM 61.9°F16.6°C 58.6°F14.8°C 89% Calm Calm -- 30.16 in1021.3 mb 0.00 in0.0 mm 0.00 in0.0 mm 0.82 in20.8 mm
06:50 PM 61.5°F16.4°C 58.6°F14.8°C 90% Calm Calm -- 30.16 in1021.3 mb 0.00 in0.0 mm 0.00 in0.0 mm 0.82 in20.8 mm
07:00 PM 61.3°F16.3°C 58.1°F14.5°C 89% Calm Calm -- 30.17 in1021.7 mb 0.00 in0.0 mm 0.00 in0.0 mm 0.82 in20.8 mm
07:10 PM 59.4°F15.2°C 56.7°F13.7°C 91% Calm Calm -- 30.17 in1021.7 mb 0.00 in0.0 mm 0.00 in0.0 mm 0.82 in20.8 mm
07:20 PM 59.5°F15.3°C 57.2°F14.0°C 92% Calm Calm -- 30.18 in1022.0 mb 0.00 in0.0 mm 0.00 in0.0 mm 0.82 in20.8 mm
07:30 PM 59.7°F15.4°C 57.7°F14.3°C 93% Calm Calm -- 30.18 in1022.0 mb 0.00 in0.0 mm 0.00 in0.0 mm 0.82 in20.8 mm
07:40 PM 59.9°F15.5°C 57.6°F14.2°C 92% Calm Calm -- 30.19 in1022.4 mb 0.00 in0.0 mm 0.00 in0.0 mm 0.82 in20.8 mm
07:50 PM 59.7°F15.4°C 57.4°F14.1°C 92% Calm Calm -- 30.20 in1022.7 mb 0.00 in0.0 mm 0.00 in0.0 mm 0.82 in20.8 mm
08:00 PM 59.4°F15.2°C 57.0°F13.9°C 92% Calm Calm -- 30.20 in1022.7 mb 0.00 in0.0 mm 0.00 in0.0 mm 0.82 in20.8 mm
08:10 PM 59.4°F15.2°C 57.0°F13.9°C 92% Calm Calm -- 30.21 in1023.0 mb 0.00 in0.0 mm 0.00 in0.0 mm 0.82 in20.8 mm
08:20 PM 59.4°F15.2°C 57.0°F13.9°C 92% Calm Calm -- 30.20 in1022.7 mb 0.00 in0.0 mm 0.00 in0.0 mm 0.82 in20.8 mm
08:30 PM 59.2°F15.1°C 56.9°F13.8°C 92% Calm Calm -- 30.21 in1023.0 mb 0.00 in0.0 mm 0.00 in0.0 mm 0.82 in20.8 mm
08:40 PM 58.8°F14.9°C 56.5°F13.6°C 92% Calm Calm -- 30.22 in1023.4 mb 0.00 in0.0 mm 0.00 in0.0 mm 0.82 in20.8 mm
08:50 PM 58.8°F14.9°C 56.2°F13.4°C 91% Calm Calm -- 30.22 in1023.4 mb 0.00 in0.0 mm 0.00 in0.0 mm 0.82 in20.8 mm
09:00 PM 58.8°F14.9°C 56.2°F13.4°C 91% Calm Calm -- 30.22 in1023.4 mb 0.00 in0.0 mm 0.00 in0.0 mm 0.82 in20.8 mm
09:10 PM 59.2°F15.1°C 56.6°F13.7°C 91% Calm Calm -- 30.23 in1023.7 mb 0.00 in0.0 mm 0.00 in0.0 mm 0.82 in20.8 mm
09:20 PM 59.0°F15.0°C 56.4°F13.6°C 91% 1.1 mph E1.8 kmh E 5.4 mph8.7 kmh 30.23 in1023.7 mb 0.00 in0.0 mm 0.00 in0.0 mm 0.82 in20.8 mm
09:30 PM 58.8°F14.9°C 56.2°F13.4°C 91% Calm Calm -- 30.23 in1023.7 mb 0.00 in0.0 mm 0.00 in0.0 mm 0.82 in20.8 mm
09:40 PM 58.8°F14.9°C 56.2°F13.4°C 91% Calm Calm -- 30.24 in1024.0 mb 0.00 in0.0 mm 0.00 in0.0 mm 0.82 in20.8 mm
09:50 PM 58.8°F14.9°C 56.2°F13.4°C 91% Calm Calm -- 30.24 in1024.0 mb 0.00 in0.0 mm 0.00 in0.0 mm 0.82 in20.8 mm
10:00 PM 58.8°F14.9°C 56.2°F13.4°C 91% Calm Calm -- 30.24 in1024.0 mb 0.00 in0.0 mm 0.00 in0.0 mm 0.82 in20.8 mm
10:10 PM 58.8°F14.9°C 56.2°F13.4°C 91% Calm Calm -- 30.24 in1024.0 mb 0.00 in0.0 mm 0.00 in0.0 mm 0.82 in20.8 mm
10:20 PM 59.4°F15.2°C 56.7°F13.7°C 91% Calm Calm -- 30.24 in1024.0 mb 0.00 in0.0 mm 0.00 in0.0 mm 0.82 in20.8 mm
10:30 PM 58.8°F14.9°C 56.2°F13.4°C 91% 0.4 mph ENE0.6 kmh ENE 1.8 mph2.9 kmh 30.24 in1024.0 mb 0.00 in0.0 mm 0.00 in0.0 mm 0.82 in20.8 mm
10:40 PM 58.8°F14.9°C 56.2°F13.4°C 91% 0.7 mph ESE1.1 kmh ESE 3.1 mph5.0 kmh 30.24 in1024.0 mb 0.00 in0.0 mm 0.00 in0.0 mm 0.82 in20.8 mm
10:50 PM 58.8°F14.9°C 56.2°F13.4°C 91% Calm Calm -- 30.24 in1024.0 mb 0.00 in0.0 mm 0.00 in0.0 mm 0.82 in20.8 mm
11:00 PM 58.6°F14.8°C 56.3°F13.5°C 92% Calm Calm -- 30.24 in1024.0 mb 0.00 in0.0 mm 0.00 in0.0 mm 0.78 in19.8 mm
11:10 PM 58.6°F14.8°C 56.3°F13.5°C 92% Calm Calm -- 30.24 in1024.0 mb 0.00 in0.0 mm 0.00 in0.0 mm 0.78 in19.8 mm
11:20 PM 58.6°F14.8°C 56.3°F13.5°C 92% 0.8 mph E1.3 kmh E 2.0 mph3.2 kmh 30.23 in1023.7 mb 0.00 in0.0 mm 0.00 in0.0 mm 0.78 in19.8 mm
11:30 PM 58.6°F14.8°C 56.3°F13.5°C 92% 0.3 mph E0.5 kmh E 1.8 mph2.9 kmh 30.24 in1024.0 mb 0.00 in0.0 mm 0.00 in0.0 mm 0.78 in19.8 mm
11:40 PM 58.6°F14.8°C 56.3°F13.5°C 92% 1.8 mph ESE2.9 kmh ESE 4.7 mph7.6 kmh 30.24 in1024.0 mb 0.00 in0.0 mm 0.00 in0.0 mm 0.78 in19.8 mm
11:50 PM 58.6°F14.8°C 56.3°F13.5°C 92% 1.9 mph E3.1 kmh E 4.0 mph6.4 kmh 30.23 in1023.7 mb 0.00 in0.0 mm 0.00 in0.0 mm 0.78 in19.8 mm